createdAt,value
2019-06-08T00:03:04.849Z,97824.00
2019-06-08T00:07:05.834Z,97850.00
2019-06-08T00:11:06.737Z,97830.00
2019-06-08T00:15:08.117Z,97808.00
2019-06-08T00:19:09.033Z,97823.00
2019-06-08T00:23:09.957Z,97807.00
2019-06-08T00:27:10.832Z,97810.00
2019-06-08T00:31:11.719Z,97806.00
2019-06-08T00:35:13.009Z,97805.00
2019-06-08T00:39:14.696Z,97813.00
2019-06-08T00:43:17.080Z,97820.00
2019-06-08T00:47:18.545Z,97827.00
2019-06-08T00:51:19.424Z,97813.00
2019-06-08T00:55:21.786Z,97825.00
2019-06-08T00:59:24.012Z,97826.00
2019-06-08T01:03:25.835Z,97817.00
2019-06-08T01:07:26.968Z,97837.00
2019-06-08T01:11:28.894Z,97827.00
2019-06-08T01:15:34.089Z,97829.00
2019-06-08T01:19:32.807Z,97835.00
2019-06-08T01:23:33.698Z,97844.00
2019-06-08T01:27:34.580Z,97853.00
2019-06-08T01:31:35.541Z,97861.00
2019-06-08T01:35:36.518Z,97872.00
2019-06-08T01:39:37.408Z,97875.00
2019-06-08T01:43:38.374Z,97870.00
2019-06-08T01:47:39.258Z,97854.00
2019-06-08T01:51:40.128Z,97883.00
2019-06-08T01:55:41.033Z,97875.00
2019-06-08T01:59:42.021Z,97868.00
2019-06-08T02:03:43.002Z,97871.00
2019-06-08T02:07:43.897Z,97860.00
2019-06-08T02:11:44.890Z,97883.00
2019-06-08T02:15:45.899Z,97908.00
2019-06-08T02:19:46.877Z,97911.00
2019-06-08T02:23:47.721Z,97887.00
2019-06-08T02:27:48.708Z,97924.00
2019-06-08T02:31:49.717Z,97913.00
2019-06-08T02:35:50.593Z,97910.00
2019-06-08T02:39:51.554Z,97920.00
2019-06-08T02:43:52.538Z,97944.00
2019-06-08T02:47:53.447Z,97942.00
2019-06-08T02:51:54.567Z,97954.00
2019-06-08T02:55:55.748Z,97968.00
2019-06-08T03:00:00.058Z,97951.00
2019-06-08T03:04:01.139Z,97970.00
2019-06-08T03:08:04.046Z,97958.00
2019-06-08T03:12:05.050Z,97959.00
2019-06-08T03:16:06.008Z,97987.00
2019-06-08T03:20:06.874Z,97967.00
2019-06-08T03:24:07.753Z,97973.00
2019-06-08T03:28:08.741Z,97970.00
2019-06-08T03:32:09.625Z,97971.00
2019-06-08T03:36:10.711Z,97992.00
2019-06-08T03:40:12.386Z,97999.00
2019-06-08T03:44:13.251Z,97999.00
2019-06-08T03:48:14.115Z,98005.00
2019-06-08T03:52:15.013Z,98027.00
2019-06-08T03:56:15.922Z,98026.00
2019-06-08T04:00:17.420Z,98015.00
2019-06-08T04:04:18.314Z,98025.00
2019-06-08T04:08:19.373Z,98003.00
2019-06-08T04:12:20.259Z,98034.00
2019-06-08T04:16:21.753Z,98035.00
2019-06-08T04:20:22.737Z,98058.00
2019-06-08T04:24:23.649Z,98072.00
2019-06-08T04:28:24.636Z,98066.00
2019-06-08T04:32:25.530Z,98086.00
2019-06-08T04:36:26.437Z,98089.00
2019-06-08T04:40:27.330Z,98095.00
2019-06-08T04:44:28.218Z,98094.00
2019-06-08T04:48:29.118Z,98104.00
2019-06-08T04:52:30.002Z,98102.00
2019-06-08T04:56:30.981Z,98110.00
2019-06-08T05:00:32.483Z,98115.00
2019-06-08T05:04:33.525Z,98127.00
2019-06-08T05:08:34.408Z,98123.00
2019-06-08T05:12:35.511Z,98095.00
2019-06-08T05:16:36.629Z,98123.00
2019-06-08T05:20:39.187Z,98136.00
2019-06-08T05:24:41.359Z,98118.00
2019-06-08T05:28:43.183Z,98128.00
2019-06-08T05:32:45.527Z,98113.00
2019-06-08T05:36:47.557Z,98141.00
2019-06-08T05:40:49.760Z,98122.00
2019-06-08T05:44:51.417Z,98145.00
2019-06-08T05:48:53.029Z,98129.00
2019-06-08T05:52:53.969Z,98142.00
2019-06-08T05:56:54.862Z,98158.00
2019-06-08T06:00:55.727Z,98173.00
2019-06-08T06:04:56.749Z,98186.00
2019-06-08T06:08:57.696Z,98191.00
2019-06-08T06:12:58.581Z,98200.00
2019-06-08T06:16:59.450Z,98183.00
2019-06-08T06:21:10.243Z,98228.00
2019-06-08T06:25:05.161Z,98235.00
2019-06-08T06:29:06.151Z,98238.00
2019-06-08T06:33:07.131Z,98233.00
2019-06-08T06:37:08.100Z,98253.00
2019-06-08T06:41:09.281Z,98266.00
2019-06-08T06:45:10.774Z,98274.00
2019-06-08T06:49:11.671Z,98286.00
2019-06-08T06:53:12.540Z,98301.00
2019-06-08T06:57:13.520Z,98292.00
2019-06-08T07:01:14.497Z,98287.00
2019-06-08T07:05:15.577Z,98299.00
2019-06-08T07:09:16.544Z,98295.00
2019-06-08T07:13:17.506Z,98298.00
2019-06-08T07:17:18.380Z,98298.00
2019-06-08T07:21:19.283Z,98295.00
2019-06-08T07:25:20.175Z,98298.00
2019-06-08T07:29:21.142Z,98300.00
2019-06-08T07:33:22.119Z,98301.00
2019-06-08T07:37:23.139Z,98299.00
2019-06-08T07:41:24.104Z,98306.00
2019-06-08T07:45:25.150Z,98298.00
2019-06-08T07:49:26.045Z,98322.00
2019-06-08T07:53:27.008Z,98328.00
2019-06-08T07:57:27.916Z,98333.00
2019-06-08T08:01:36.259Z,98317.00
2019-06-08T08:05:31.692Z,98320.00
2019-06-08T08:09:32.724Z,98325.00
2019-06-08T08:13:33.837Z,98325.00
2019-06-08T08:17:34.844Z,98333.00
2019-06-08T08:21:38.028Z,98322.00
2019-06-08T08:25:38.746Z,98332.00
2019-06-08T08:29:39.614Z,98340.00
2019-06-08T08:33:40.499Z,98347.00
2019-06-08T08:37:41.516Z,98360.00
2019-06-08T08:41:42.971Z,98378.00
2019-06-08T08:45:44.083Z,98382.00
2019-06-08T08:49:45.006Z,98402.00
2019-06-08T08:53:48.585Z,98384.00
2019-06-08T08:57:48.749Z,98384.00
2019-06-08T09:01:51.294Z,98388.00
2019-06-08T09:05:53.891Z,98405.00
2019-06-08T09:09:59.425Z,98405.00
2019-06-08T09:14:06.069Z,98424.00
2019-06-08T09:18:03.677Z,98414.00
2019-06-08T09:22:05.110Z,98426.00
2019-06-08T09:26:11.892Z,98431.00
2019-06-08T09:30:09.360Z,98436.00
2019-06-08T09:34:15.030Z,98427.00
2019-06-08T09:38:13.247Z,98428.00
2019-06-08T09:42:14.435Z,98436.00
2019-06-08T09:46:17.731Z,98449.00
2019-06-08T09:50:18.700Z,98458.00
2019-06-08T09:54:19.960Z,98445.00
2019-06-08T09:58:21.001Z,98435.00
2019-06-08T10:02:22.369Z,98451.00
2019-06-08T10:06:23.414Z,98449.00
2019-06-08T10:10:24.415Z,98460.00
2019-06-08T10:14:28.071Z,98450.00
2019-06-08T10:18:28.619Z,98455.00
2019-06-08T10:22:29.629Z,98466.00
2019-06-08T10:26:30.753Z,98473.00
2019-06-08T10:30:31.726Z,98476.00
2019-06-08T10:34:32.634Z,98471.00
2019-06-08T10:38:33.512Z,98479.00
2019-06-08T10:42:34.503Z,98487.00
2019-06-08T10:46:40.284Z,98498.00
2019-06-08T10:50:38.295Z,98500.00
2019-06-08T10:54:39.282Z,98478.00
2019-06-08T10:58:40.309Z,98492.00
2019-06-08T11:02:41.214Z,98507.00
2019-06-08T11:06:42.197Z,98501.00
2019-06-08T11:10:43.379Z,98508.00
2019-06-08T11:14:44.293Z,98509.00
2019-06-08T11:18:45.268Z,98510.00
2019-06-08T11:22:49.848Z,98513.00
2019-06-08T11:26:48.993Z,98539.00
2019-06-08T11:30:50.683Z,98524.00
2019-06-08T11:34:51.601Z,98531.00
2019-06-08T11:38:52.562Z,98534.00
2019-06-08T11:42:53.540Z,98531.00
2019-06-08T11:46:54.469Z,98528.00
2019-06-08T11:50:55.542Z,98551.00
2019-06-08T11:54:57.347Z,98544.00
2019-06-08T11:59:01.080Z,98548.00
2019-06-08T12:03:02.320Z,98548.00
2019-06-08T12:07:04.541Z,98567.00
2019-06-08T12:11:09.739Z,98552.00
2019-06-08T12:15:11.549Z,98553.00
2019-06-08T12:19:15.037Z,98561.00
2019-06-08T12:23:14.440Z,98558.00
2019-06-08T12:27:29.178Z,98554.00
2019-06-08T12:31:22.299Z,98559.00
2019-06-08T12:35:21.041Z,98555.00
2019-06-08T12:39:22.014Z,98552.00
2019-06-08T12:43:22.893Z,98543.00
2019-06-08T12:47:26.900Z,98546.00
2019-06-08T12:51:28.107Z,98552.00
2019-06-08T12:55:29.473Z,98552.00
2019-06-08T12:59:30.427Z,98552.00
2019-06-08T13:03:31.441Z,98560.00
2019-06-08T13:07:32.552Z,98567.00
2019-06-08T13:11:33.593Z,98567.00
2019-06-08T13:15:34.687Z,98556.00
2019-06-08T13:19:35.579Z,98558.00
2019-06-08T13:23:38.328Z,98569.00
2019-06-08T13:27:39.341Z,98562.00
2019-06-08T13:31:40.778Z,98563.00
2019-06-08T13:35:41.707Z,98568.00
2019-06-08T13:39:42.568Z,98571.00
2019-06-08T13:43:43.763Z,98575.00
2019-06-08T13:47:44.693Z,98573.00
2019-06-08T13:51:47.954Z,98572.00
2019-06-08T13:55:56.156Z,98586.00
2019-06-08T13:59:51.845Z,98577.00
2019-06-08T14:03:52.846Z,98592.00
2019-06-08T14:07:53.798Z,98593.00
2019-06-08T14:11:54.768Z,98582.00
2019-06-08T14:15:55.833Z,98580.00
2019-06-08T14:19:59.312Z,98582.00
2019-06-08T14:23:59.611Z,98576.00
2019-06-08T14:28:00.589Z,98568.00
2019-06-08T14:32:01.693Z,98582.00
2019-06-08T14:36:02.766Z,98581.00
2019-06-08T14:40:08.091Z,98585.00
2019-06-08T14:44:08.773Z,98595.00
2019-06-08T14:48:09.638Z,98585.00
2019-06-08T14:52:10.835Z,98579.00
2019-06-08T14:56:12.223Z,98569.00
2019-06-08T15:00:20.445Z,98580.00
2019-06-08T15:04:23.771Z,98575.00
2019-06-08T15:08:23.614Z,98576.00
2019-06-08T15:12:25.522Z,98579.00
2019-06-08T15:16:28.240Z,98578.00
2019-06-08T15:20:30.366Z,98580.00
2019-06-08T15:24:32.696Z,98555.00
2019-06-08T15:28:36.266Z,98573.00
2019-06-08T15:32:38.711Z,98573.00
2019-06-08T15:36:40.076Z,98571.00
2019-06-08T15:40:40.950Z,98572.00
2019-06-08T15:44:41.907Z,98575.00
2019-06-08T15:48:43.021Z,98567.00
2019-06-08T15:52:43.937Z,98559.00
2019-06-08T15:56:49.417Z,98569.00
2019-06-08T16:00:47.737Z,98570.00
2019-06-08T16:04:48.757Z,98564.00
2019-06-08T16:08:49.668Z,98580.00
2019-06-08T16:12:50.576Z,98573.00
2019-06-08T16:16:51.562Z,98585.00
2019-06-08T16:20:52.417Z,98581.00
2019-06-08T16:24:53.322Z,98585.00
2019-06-08T16:28:54.312Z,98586.00
2019-06-08T16:32:55.210Z,98578.00
2019-06-08T16:36:56.105Z,98583.00
2019-06-08T16:40:57.065Z,98587.00
2019-06-08T16:44:57.949Z,98583.00
2019-06-08T16:48:58.872Z,98594.00
2019-06-08T16:52:59.920Z,98591.00
2019-06-08T16:57:10.119Z,98595.00
2019-06-08T17:01:04.507Z,98597.00
2019-06-08T17:05:05.617Z,98588.00
2019-06-08T17:09:07.418Z,98600.00
2019-06-08T17:13:11.187Z,98595.00
2019-06-08T17:17:11.413Z,98592.00
2019-06-08T17:21:12.309Z,98589.00
2019-06-08T17:25:13.415Z,98590.00
2019-06-08T17:29:14.272Z,98591.00
2019-06-08T17:33:15.262Z,98589.00
2019-06-08T17:37:16.256Z,98585.00
2019-06-08T17:41:17.160Z,98583.00
2019-06-08T17:45:18.303Z,98595.00
2019-06-08T17:49:19.863Z,98589.00
2019-06-08T17:53:20.746Z,98590.00
2019-06-08T17:57:21.641Z,98582.00
2019-06-08T18:01:22.527Z,98595.00
2019-06-08T18:05:23.685Z,98595.00
2019-06-08T18:09:24.694Z,98599.00
2019-06-08T18:13:27.258Z,98599.00
2019-06-08T18:17:28.534Z,98601.00
2019-06-08T18:21:29.466Z,98604.00
2019-06-08T18:25:30.541Z,98608.00
2019-06-08T18:29:31.534Z,98613.00
2019-06-08T18:33:32.431Z,98610.00
2019-06-08T18:37:33.456Z,98608.00
2019-06-08T18:41:35.012Z,98611.00
2019-06-08T18:45:39.055Z,98616.00
2019-06-08T18:49:41.646Z,98619.00
2019-06-08T18:54:01.810Z,98616.00
2019-06-08T18:57:45.766Z,98623.00
2019-06-08T19:01:49.469Z,98631.00
2019-06-08T19:05:52.082Z,98639.00
2019-06-08T19:09:54.294Z,98630.00
2019-06-08T19:13:57.899Z,98643.00
2019-06-08T19:17:58.069Z,98639.00
2019-06-08T19:21:59.072Z,98644.00
2019-06-08T19:26:00.493Z,98645.00
2019-06-08T19:30:01.878Z,98651.00
2019-06-08T19:34:03.158Z,98651.00
2019-06-08T19:38:04.034Z,98661.00
2019-06-08T19:42:05.435Z,98666.00
2019-06-08T19:46:07.206Z,98668.00
2019-06-08T19:50:08.583Z,98667.00
2019-06-08T19:54:09.749Z,98673.00
2019-06-08T19:58:10.628Z,98685.00
2019-06-08T20:02:11.523Z,98682.00
2019-06-08T20:06:14.317Z,98684.00
2019-06-08T20:10:17.637Z,98683.00
2019-06-08T20:14:18.310Z,98672.00
2019-06-08T20:18:19.343Z,98687.00
2019-06-08T20:22:20.293Z,98692.00
2019-06-08T20:26:21.205Z,98689.00
2019-06-08T20:30:22.204Z,98695.00
2019-06-08T20:34:23.208Z,98696.00
2019-06-08T20:38:35.195Z,98696.00
2019-06-08T20:42:28.855Z,98696.00
2019-06-08T20:46:29.715Z,98700.00
2019-06-08T20:50:30.691Z,98698.00
2019-06-08T20:54:31.544Z,98703.00
2019-06-08T20:58:32.475Z,98700.00
2019-06-08T21:02:33.465Z,98706.00
2019-06-08T21:06:34.333Z,98701.00
2019-06-08T21:10:37.611Z,98712.00
2019-06-08T21:14:38.232Z,98722.00
2019-06-08T21:18:39.085Z,98721.00
2019-06-08T21:22:39.974Z,98723.00
2019-06-08T21:26:40.874Z,98718.00
2019-06-08T21:30:41.763Z,98729.00
2019-06-08T21:34:42.650Z,98724.00
2019-06-08T21:38:43.609Z,98726.00
2019-06-08T21:42:44.547Z,98729.00
2019-06-08T21:46:48.708Z,98734.00
2019-06-08T21:50:53.346Z,98736.00
2019-06-08T21:54:54.346Z,98726.00
2019-06-08T21:58:58.986Z,98732.00
2019-06-08T22:03:00.150Z,98744.00
2019-06-08T22:07:03.208Z,98745.00
2019-06-08T22:11:04.549Z,98737.00
2019-06-08T22:15:07.501Z,98747.00
2019-06-08T22:19:08.843Z,98750.00
2019-06-08T22:23:09.677Z,98754.00
2019-06-08T22:27:10.699Z,98738.00
2019-06-08T22:31:11.576Z,98746.00
2019-06-08T22:35:12.561Z,98740.00
2019-06-08T22:39:13.456Z,98742.00
2019-06-08T22:43:16.124Z,98747.00
2019-06-08T22:47:18.564Z,98744.00
2019-06-08T22:51:19.596Z,98754.00
2019-06-08T22:55:20.490Z,98746.00
2019-06-08T22:59:21.481Z,98756.00
2019-06-08T23:03:22.329Z,98751.00
2019-06-08T23:07:28.628Z,98749.00
2019-06-08T23:11:28.301Z,98744.00
2019-06-08T23:15:28.826Z,98751.00
2019-06-08T23:19:29.726Z,98756.00
2019-06-08T23:23:30.676Z,98754.00
2019-06-08T23:27:31.563Z,98750.00
2019-06-08T23:31:32.437Z,98745.00
2019-06-08T23:35:56.775Z,98738.00
2019-06-08T23:39:37.497Z,98736.00
2019-06-08T23:43:38.534Z,98751.00
2019-06-08T23:47:39.447Z,98747.00
2019-06-08T23:51:40.301Z,98740.00
2019-06-08T23:55:41.186Z,98744.00
2019-06-08T23:59:42.048Z,98741.00
